sensor_id;sensor_type;location;lat;lon;timestamp;P1;durP1;ratioP1;P2;durP2;ratioP2
13967;SDS011;39536;52.198;9.920;2023-03-01T00:01:07;16.83;;;14.83;;
13967;SDS011;39536;52.198;9.920;2023-03-01T00:03:35;15.30;;;13.80;;
13967;SDS011;39536;52.198;9.920;2023-03-01T00:06:02;17.00;;;14.90;;
13967;SDS011;39536;52.198;9.920;2023-03-01T00:08:31;16.97;;;13.70;;
13967;SDS011;39536;52.198;9.920;2023-03-01T00:11:02;15.30;;;13.60;;
13967;SDS011;39536;52.198;9.920;2023-03-01T00:13:30;17.83;;;14.10;;
13967;SDS011;39536;52.198;9.920;2023-03-01T00:15:56;15.20;;;13.70;;
13967;SDS011;39536;52.198;9.920;2023-03-01T00:18:23;14.77;;;13.37;;
13967;SDS011;39536;52.198;9.920;2023-03-01T00:20:50;17.80;;;14.03;;
13967;SDS011;39536;52.198;9.920;2023-03-01T00:23:17;17.37;;;15.50;;
13967;SDS011;39536;52.198;9.920;2023-03-01T00:25:45;15.60;;;13.90;;
13967;SDS011;39536;52.198;9.920;2023-03-01T00:28:11;15.13;;;13.33;;
13967;SDS011;39536;52.198;9.920;2023-03-01T00:30:38;15.40;;;13.80;;
13967;SDS011;39536;52.198;9.920;2023-03-01T00:33:05;16.57;;;14.20;;
13967;SDS011;39536;52.198;9.920;2023-03-01T00:35:31;15.47;;;13.50;;
13967;SDS011;39536;52.198;9.920;2023-03-01T00:37:58;15.63;;;14.00;;
13967;SDS011;39536;52.198;9.920;2023-03-01T00:40:25;15.43;;;13.33;;
13967;SDS011;39536;52.198;9.920;2023-03-01T00:42:52;15.10;;;13.50;;
13967;SDS011;39536;52.198;9.920;2023-03-01T00:45:19;16.07;;;14.43;;
13967;SDS011;39536;52.198;9.920;2023-03-01T00:47:46;14.30;;;13.00;;
13967;SDS011;39536;52.198;9.920;2023-03-01T00:50:13;16.80;;;14.43;;
13967;SDS011;39536;52.198;9.920;2023-03-01T00:52:39;15.77;;;14.07;;
13967;SDS011;39536;52.198;9.920;2023-03-01T00:55:06;16.90;;;15.20;;
13967;SDS011;39536;52.198;9.920;2023-03-01T00:57:33;15.70;;;14.07;;
13967;SDS011;39536;52.198;9.920;2023-03-01T01:00:01;16.03;;;14.37;;
13967;SDS011;39536;52.198;9.920;2023-03-01T01:02:29;15.83;;;13.57;;
13967;SDS011;39536;52.198;9.920;2023-03-01T01:04:55;16.43;;;13.57;;
13967;SDS011;39536;52.198;9.920;2023-03-01T01:07:22;15.87;;;14.07;;
13967;SDS011;39536;52.198;9.920;2023-03-01T01:09:48;16.60;;;13.90;;
13967;SDS011;39536;52.198;9.920;2023-03-01T01:12:15;15.47;;;13.73;;
13967;SDS011;39536;52.198;9.920;2023-03-01T01:14:41;15.70;;;13.53;;
13967;SDS011;39536;52.198;9.920;2023-03-01T01:17:09;18.73;;;14.33;;
13967;SDS011;39536;52.198;9.920;2023-03-01T01:19:35;15.57;;;13.63;;
13967;SDS011;39536;52.198;9.920;2023-03-01T01:22:02;15.70;;;14.00;;
13967;SDS011;39536;52.198;9.920;2023-03-01T01:26:54;15.10;;;13.47;;
13967;SDS011;39536;52.198;9.920;2023-03-01T01:29:21;14.83;;;13.30;;
13967;SDS011;39536;52.198;9.920;2023-03-01T01:31:48;15.83;;;14.30;;
13967;SDS011;39536;52.198;9.920;2023-03-01T01:34:18;16.77;;;15.07;;
13967;SDS011;39536;52.198;9.920;2023-03-01T01:36:47;15.27;;;13.67;;
13967;SDS011;39536;52.198;9.920;2023-03-01T01:39:14;15.30;;;13.73;;
13967;SDS011;39536;52.198;9.920;2023-03-01T01:41:42;15.50;;;13.47;;
13967;SDS011;39536;52.198;9.920;2023-03-01T01:44:13;15.97;;;14.47;;
13967;SDS011;39536;52.198;9.920;2023-03-01T01:46:43;17.23;;;14.07;;
13967;SDS011;39536;52.198;9.920;2023-03-01T01:49:17;15.10;;;13.73;;
13967;SDS011;39536;52.198;9.920;2023-03-01T01:51:49;15.40;;;13.80;;
13967;SDS011;39536;52.198;9.920;2023-03-01T01:54:22;15.23;;;13.73;;
13967;SDS011;39536;52.198;9.920;2023-03-01T01:56:53;15.83;;;14.23;;
13967;SDS011;39536;52.198;9.920;2023-03-01T01:59:23;16.70;;;13.60;;
13967;SDS011;39536;52.198;9.920;2023-03-01T02:01:51;13.97;;;12.67;;
13967;SDS011;39536;52.198;9.920;2023-03-01T02:04:19;16.87;;;13.53;;
13967;SDS011;39536;52.198;9.920;2023-03-01T02:06:48;15.73;;;14.23;;
13967;SDS011;39536;52.198;9.920;2023-03-01T02:09:39;15.67;;;13.43;;
13967;SDS011;39536;52.198;9.920;2023-03-01T02:12:08;15.17;;;13.73;;
13967;SDS011;39536;52.198;9.920;2023-03-01T02:14:35;14.90;;;13.37;;
13967;SDS011;39536;52.198;9.920;2023-03-01T02:17:02;14.40;;;12.90;;
13967;SDS011;39536;52.198;9.920;2023-03-01T02:19:33;20.23;;;12.80;;
13967;SDS011;39536;52.198;9.920;2023-03-01T02:22:12;15.43;;;13.17;;
13967;SDS011;39536;52.198;9.920;2023-03-01T02:24:47;14.97;;;13.37;;
13967;SDS011;39536;52.198;9.920;2023-03-01T02:27:26;20.67;;;14.30;;
13967;SDS011;39536;52.198;9.920;2023-03-01T02:29:59;14.33;;;12.83;;
13967;SDS011;39536;52.198;9.920;2023-03-01T02:32:26;14.43;;;12.90;;
13967;SDS011;39536;52.198;9.920;2023-03-01T02:34:52;14.43;;;12.50;;
13967;SDS011;39536;52.198;9.920;2023-03-01T02:37:20;13.90;;;12.33;;
13967;SDS011;39536;52.198;9.920;2023-03-01T02:39:50;14.33;;;12.83;;
13967;SDS011;39536;52.198;9.920;2023-03-01T02:42:23;14.83;;;13.07;;
13967;SDS011;39536;52.198;9.920;2023-03-01T02:45:10;14.43;;;12.60;;
13967;SDS011;39536;52.198;9.920;2023-03-01T02:47:37;14.80;;;12.60;;
13967;SDS011;39536;52.198;9.920;2023-03-01T02:50:09;14.17;;;12.70;;
13967;SDS011;39536;52.198;9.920;2023-03-01T02:52:43;14.40;;;12.90;;
13967;SDS011;39536;52.198;9.920;2023-03-01T02:55:20;14.67;;;12.60;;
13967;SDS011;39536;52.198;9.920;2023-03-01T02:57:47;14.03;;;12.63;;
13967;SDS011;39536;52.198;9.920;2023-03-01T03:00:18;13.53;;;12.17;;
13967;SDS011;39536;52.198;9.920;2023-03-01T03:02:48;15.00;;;12.77;;
13967;SDS011;39536;52.198;9.920;2023-03-01T03:05:17;19.50;;;12.73;;
13967;SDS011;39536;52.198;9.920;2023-03-01T03:07:47;13.97;;;12.60;;
13967;SDS011;39536;52.198;9.920;2023-03-01T03:10:16;14.33;;;12.93;;
13967;SDS011;39536;52.198;9.920;2023-03-01T03:12:47;13.33;;;12.03;;
13967;SDS011;39536;52.198;9.920;2023-03-01T03:15:16;15.23;;;13.37;;
13967;SDS011;39536;52.198;9.920;2023-03-01T03:17:45;14.43;;;12.93;;
13967;SDS011;39536;52.198;9.920;2023-03-01T03:20:13;14.47;;;13.07;;
13967;SDS011;39536;52.198;9.920;2023-03-01T03:22:44;19.33;;;13.47;;
13967;SDS011;39536;52.198;9.920;2023-03-01T03:25:13;15.70;;;13.87;;
13967;SDS011;39536;52.198;9.920;2023-03-01T03:27:40;18.43;;;13.83;;
13967;SDS011;39536;52.198;9.920;2023-03-01T03:30:09;14.30;;;12.77;;
13967;SDS011;39536;52.198;9.920;2023-03-01T03:32:40;16.27;;;13.50;;
13967;SDS011;39536;52.198;9.920;2023-03-01T03:35:08;19.80;;;13.43;;
13967;SDS011;39536;52.198;9.920;2023-03-01T03:37:36;15.03;;;13.63;;
13967;SDS011;39536;52.198;9.920;2023-03-01T03:40:26;15.10;;;13.50;;
13967;SDS011;39536;52.198;9.920;2023-03-01T03:42:56;17.37;;;13.93;;
13967;SDS011;39536;52.198;9.920;2023-03-01T03:45:23;14.30;;;12.90;;
13967;SDS011;39536;52.198;9.920;2023-03-01T03:47:52;15.70;;;13.50;;
13967;SDS011;39536;52.198;9.920;2023-03-01T03:50:18;13.30;;;11.97;;
13967;SDS011;39536;52.198;9.920;2023-03-01T03:52:46;15.17;;;13.60;;
13967;SDS011;39536;52.198;9.920;2023-03-01T03:55:13;13.20;;;11.80;;
13967;SDS011;39536;52.198;9.920;2023-03-01T03:57:44;14.33;;;12.83;;
13967;SDS011;39536;52.198;9.920;2023-03-01T04:00:16;13.60;;;12.20;;
13967;SDS011;39536;52.198;9.920;2023-03-01T04:02:44;13.50;;;12.07;;
13967;SDS011;39536;52.198;9.920;2023-03-01T04:05:14;14.47;;;12.97;;
13967;SDS011;39536;52.198;9.920;2023-03-01T04:07:42;13.73;;;12.33;;
13967;SDS011;39536;52.198;9.920;2023-03-01T04:10:11;17.07;;;12.20;;
13967;SDS011;39536;52.198;9.920;2023-03-01T04:12:39;13.47;;;11.93;;
13967;SDS011;39536;52.198;9.920;2023-03-01T04:15:08;14.37;;;12.47;;
13967;SDS011;39536;52.198;9.920;2023-03-01T04:17:38;14.10;;;11.90;;
13967;SDS011;39536;52.198;9.920;2023-03-01T04:20:16;13.33;;;11.13;;
13967;SDS011;39536;52.198;9.920;2023-03-01T04:22:50;13.63;;;12.30;;
13967;SDS011;39536;52.198;9.920;2023-03-01T04:25:17;13.17;;;11.80;;
13967;SDS011;39536;52.198;9.920;2023-03-01T04:27:45;13.13;;;11.93;;
13967;SDS011;39536;52.198;9.920;2023-03-01T04:30:12;12.63;;;11.33;;
13967;SDS011;39536;52.198;9.920;2023-03-01T04:32:40;12.40;;;11.20;;
13967;SDS011;39536;52.198;9.920;2023-03-01T04:35:07;13.47;;;12.03;;
13967;SDS011;39536;52.198;9.920;2023-03-01T04:37:50;12.27;;;10.97;;
13967;SDS011;39536;52.198;9.920;2023-03-01T04:40:17;12.50;;;11.20;;
13967;SDS011;39536;52.198;9.920;2023-03-01T04:42:44;11.50;;;10.40;;
13967;SDS011;39536;52.198;9.920;2023-03-01T04:45:10;13.13;;;10.43;;
13967;SDS011;39536;52.198;9.920;2023-03-01T04:47:39;11.07;;;9.97;;
13967;SDS011;39536;52.198;9.920;2023-03-01T04:50:08;11.20;;;10.10;;
13967;SDS011;39536;52.198;9.920;2023-03-01T04:52:36;13.87;;;11.27;;
13967;SDS011;39536;52.198;9.920;2023-03-01T04:55:05;12.63;;;11.37;;
13967;SDS011;39536;52.198;9.920;2023-03-01T04:57:33;11.67;;;10.57;;
13967;SDS011;39536;52.198;9.920;2023-03-01T04:59:59;11.87;;;10.67;;
13967;SDS011;39536;52.198;9.920;2023-03-01T05:02:26;12.67;;;11.37;;
13967;SDS011;39536;52.198;9.920;2023-03-01T05:04:53;12.17;;;10.27;;
13967;SDS011;39536;52.198;9.920;2023-03-01T05:07:22;10.47;;;9.43;;
13967;SDS011;39536;52.198;9.920;2023-03-01T05:09:51;11.47;;;10.27;;
13967;SDS011;39536;52.198;9.920;2023-03-01T05:12:21;13.13;;;10.33;;
13967;SDS011;39536;52.198;9.920;2023-03-01T05:15:03;11.87;;;10.53;;
13967;SDS011;39536;52.198;9.920;2023-03-01T05:17:32;10.77;;;9.60;;
13967;SDS011;39536;52.198;9.920;2023-03-01T05:19:59;11.70;;;10.50;;
13967;SDS011;39536;52.198;9.920;2023-03-01T05:22:26;11.23;;;10.13;;
13967;SDS011;39536;52.198;9.920;2023-03-01T05:24:53;12.50;;;11.03;;
13967;SDS011;39536;52.198;9.920;2023-03-01T05:27:21;16.77;;;11.07;;
13967;SDS011;39536;52.198;9.920;2023-03-01T05:29:48;11.07;;;10.00;;
13967;SDS011;39536;52.198;9.920;2023-03-01T05:32:15;15.40;;;10.73;;
13967;SDS011;39536;52.198;9.920;2023-03-01T05:34:42;12.77;;;11.57;;
13967;SDS011;39536;52.198;9.920;2023-03-01T05:37:11;12.27;;;11.17;;
13967;SDS011;39536;52.198;9.920;2023-03-01T05:39:38;15.90;;;11.40;;
13967;SDS011;39536;52.198;9.920;2023-03-01T05:42:08;14.60;;;11.23;;
13967;SDS011;39536;52.198;9.920;2023-03-01T05:44:38;10.70;;;9.70;;
13967;SDS011;39536;52.198;9.920;2023-03-01T05:47:08;13.47;;;10.23;;
13967;SDS011;39536;52.198;9.920;2023-03-01T05:49:37;12.77;;;9.77;;
13967;SDS011;39536;52.198;9.920;2023-03-01T05:52:04;11.70;;;10.50;;
13967;SDS011;39536;52.198;9.920;2023-03-01T05:54:30;13.30;;;10.40;;
13967;SDS011;39536;52.198;9.920;2023-03-01T05:56:58;11.33;;;10.10;;
13967;SDS011;39536;52.198;9.920;2023-03-01T05:59:25;11.33;;;10.23;;
13967;SDS011;39536;52.198;9.920;2023-03-01T06:04:52;10.90;;;9.07;;
13967;SDS011;39536;52.198;9.920;2023-03-01T06:07:20;11.00;;;9.93;;
13967;SDS011;39536;52.198;9.920;2023-03-01T06:09:47;10.80;;;9.80;;
13967;SDS011;39536;52.198;9.920;2023-03-01T06:12:13;12.77;;;10.70;;
13967;SDS011;39536;52.198;9.920;2023-03-01T06:14:40;15.20;;;11.00;;
13967;SDS011;39536;52.198;9.920;2023-03-01T06:17:09;12.80;;;10.23;;
13967;SDS011;39536;52.198;9.920;2023-03-01T06:19:36;11.57;;;10.43;;
13967;SDS011;39536;52.198;9.920;2023-03-01T06:22:02;12.50;;;10.53;;
13967;SDS011;39536;52.198;9.920;2023-03-01T06:24:29;15.90;;;14.30;;
13967;SDS011;39536;52.198;9.920;2023-03-01T06:26:56;12.70;;;11.27;;
13967;SDS011;39536;52.198;9.920;2023-03-01T06:29:22;12.33;;;9.83;;
13967;SDS011;39536;52.198;9.920;2023-03-01T06:31:49;12.43;;;9.73;;
13967;SDS011;39536;52.198;9.920;2023-03-01T06:37:33;14.83;;;12.77;;
13967;SDS011;39536;52.198;9.920;2023-03-01T06:40:00;17.67;;;13.73;;
13967;SDS011;39536;52.198;9.920;2023-03-01T06:42:30;13.77;;;12.17;;
13967;SDS011;39536;52.198;9.920;2023-03-01T06:44:56;13.20;;;11.30;;
13967;SDS011;39536;52.198;9.920;2023-03-01T06:47:23;13.27;;;11.97;;
13967;SDS011;39536;52.198;9.920;2023-03-01T06:49:50;14.90;;;11.67;;
13967;SDS011;39536;52.198;9.920;2023-03-01T06:52:16;13.90;;;12.17;;
13967;SDS011;39536;52.198;9.920;2023-03-01T06:54:44;12.87;;;11.63;;
13967;SDS011;39536;52.198;9.920;2023-03-01T06:57:10;14.87;;;13.30;;
13967;SDS011;39536;52.198;9.920;2023-03-01T06:59:37;13.43;;;12.23;;
13967;SDS011;39536;52.198;9.920;2023-03-01T07:02:04;16.83;;;12.27;;
13967;SDS011;39536;52.198;9.920;2023-03-01T07:04:30;14.57;;;12.70;;
13967;SDS011;39536;52.198;9.920;2023-03-01T07:10:35;15.57;;;13.47;;
13967;SDS011;39536;52.198;9.920;2023-03-01T07:13:02;15.50;;;13.87;;
13967;SDS011;39536;52.198;9.920;2023-03-01T07:15:31;17.47;;;14.40;;
13967;SDS011;39536;52.198;9.920;2023-03-01T07:17:58;20.03;;;14.27;;
13967;SDS011;39536;52.198;9.920;2023-03-01T07:20:25;15.87;;;14.17;;
13967;SDS011;39536;52.198;9.920;2023-03-01T07:22:54;17.63;;;15.40;;
13967;SDS011;39536;52.198;9.920;2023-03-01T07:25:23;15.13;;;13.57;;
13967;SDS011;39536;52.198;9.920;2023-03-01T07:27:51;15.53;;;14.03;;
13967;SDS011;39536;52.198;9.920;2023-03-01T07:30:18;19.90;;;13.73;;
13967;SDS011;39536;52.198;9.920;2023-03-01T07:32:45;20.10;;;17.97;;
13967;SDS011;39536;52.198;9.920;2023-03-01T07:35:12;15.47;;;13.97;;
13967;SDS011;39536;52.198;9.920;2023-03-01T07:37:39;15.47;;;13.97;;
13967;SDS011;39536;52.198;9.920;2023-03-01T07:40:07;15.67;;;13.73;;
13967;SDS011;39536;52.198;9.920;2023-03-01T07:42:34;15.60;;;13.97;;
13967;SDS011;39536;52.198;9.920;2023-03-01T07:45:02;16.17;;;14.27;;
13967;SDS011;39536;52.198;9.920;2023-03-01T07:47:29;15.57;;;13.60;;
13967;SDS011;39536;52.198;9.920;2023-03-01T07:49:55;19.33;;;13.53;;
13967;SDS011;39536;52.198;9.920;2023-03-01T07:52:22;16.57;;;15.00;;
13967;SDS011;39536;52.198;9.920;2023-03-01T07:54:48;15.20;;;13.83;;
13967;SDS011;39536;52.198;9.920;2023-03-01T07:57:15;16.10;;;14.20;;
13967;SDS011;39536;52.198;9.920;2023-03-01T07:59:41;15.83;;;14.27;;
13967;SDS011;39536;52.198;9.920;2023-03-01T08:02:09;16.73;;;14.80;;
13967;SDS011;39536;52.198;9.920;2023-03-01T08:04:36;17.90;;;15.03;;
13967;SDS011;39536;52.198;9.920;2023-03-01T08:07:04;16.77;;;15.13;;
13967;SDS011;39536;52.198;9.920;2023-03-01T08:09:31;16.33;;;14.73;;
13967;SDS011;39536;52.198;9.920;2023-03-01T08:12:00;17.17;;;15.40;;
13967;SDS011;39536;52.198;9.920;2023-03-01T08:14:26;17.00;;;15.30;;
13967;SDS011;39536;52.198;9.920;2023-03-01T08:16:53;24.10;;;16.97;;
13967;SDS011;39536;52.198;9.920;2023-03-01T08:19:21;21.20;;;15.37;;
13967;SDS011;39536;52.198;9.920;2023-03-01T08:21:47;27.20;;;16.17;;
13967;SDS011;39536;52.198;9.920;2023-03-01T08:24:14;27.10;;;16.03;;
13967;SDS011;39536;52.198;9.920;2023-03-01T08:26:40;17.90;;;16.07;;
13967;SDS011;39536;52.198;9.920;2023-03-01T08:29:07;18.00;;;16.40;;
13967;SDS011;39536;52.198;9.920;2023-03-01T08:31:34;19.57;;;17.53;;
13967;SDS011;39536;52.198;9.920;2023-03-01T08:34:03;29.77;;;17.73;;
13967;SDS011;39536;52.198;9.920;2023-03-01T08:36:33;19.80;;;17.40;;
13967;SDS011;39536;52.198;9.920;2023-03-01T08:39:02;19.77;;;16.40;;
13967;SDS011;39536;52.198;9.920;2023-03-01T08:41:28;18.40;;;16.70;;
13967;SDS011;39536;52.198;9.920;2023-03-01T08:43:55;17.57;;;15.90;;
13967;SDS011;39536;52.198;9.920;2023-03-01T08:46:24;17.53;;;15.80;;
13967;SDS011;39536;52.198;9.920;2023-03-01T08:48:51;20.37;;;16.17;;
13967;SDS011;39536;52.198;9.920;2023-03-01T08:51:18;18.20;;;16.30;;
13967;SDS011;39536;52.198;9.920;2023-03-01T08:53:47;18.47;;;16.53;;
13967;SDS011;39536;52.198;9.920;2023-03-01T08:56:14;16.90;;;15.40;;
13967;SDS011;39536;52.198;9.920;2023-03-01T08:58:43;16.73;;;15.23;;
13967;SDS011;39536;52.198;9.920;2023-03-01T09:01:10;16.43;;;14.83;;
13967;SDS011;39536;52.198;9.920;2023-03-01T09:03:38;18.67;;;15.77;;
13967;SDS011;39536;52.198;9.920;2023-03-01T09:06:04;24.17;;;15.80;;
13967;SDS011;39536;52.198;9.920;2023-03-01T09:08:34;16.83;;;15.20;;
13967;SDS011;39536;52.198;9.920;2023-03-01T09:11:02;17.27;;;15.57;;
13967;SDS011;39536;52.198;9.920;2023-03-01T09:13:29;16.37;;;14.87;;
13967;SDS011;39536;52.198;9.920;2023-03-01T09:15:57;17.43;;;15.47;;
13967;SDS011;39536;52.198;9.920;2023-03-01T09:18:23;16.57;;;15.00;;
13967;SDS011;39536;52.198;9.920;2023-03-01T09:20:50;16.17;;;14.63;;
13967;SDS011;39536;52.198;9.920;2023-03-01T09:23:16;15.53;;;14.10;;
13967;SDS011;39536;52.198;9.920;2023-03-01T09:25:43;17.03;;;15.23;;
13967;SDS011;39536;52.198;9.920;2023-03-01T09:28:10;17.43;;;13.57;;
13967;SDS011;39536;52.198;9.920;2023-03-01T09:30:37;15.57;;;14.07;;
13967;SDS011;39536;52.198;9.920;2023-03-01T09:33:03;15.13;;;13.63;;
13967;SDS011;39536;52.198;9.920;2023-03-01T09:35:29;15.87;;;12.50;;
13967;SDS011;39536;52.198;9.920;2023-03-01T09:37:56;15.10;;;12.00;;
13967;SDS011;39536;52.198;9.920;2023-03-01T09:40:23;23.77;;;13.40;;
13967;SDS011;39536;52.198;9.920;2023-03-01T09:42:53;15.70;;;12.87;;
13967;SDS011;39536;52.198;9.920;2023-03-01T09:45:27;13.90;;;12.30;;
13967;SDS011;39536;52.198;9.920;2023-03-01T09:47:59;16.87;;;12.10;;
13967;SDS011;39536;52.198;9.920;2023-03-01T09:50:28;15.03;;;12.70;;
13967;SDS011;39536;52.198;9.920;2023-03-01T09:53:01;15.57;;;13.63;;
13967;SDS011;39536;52.198;9.920;2023-03-01T09:55:31;14.40;;;12.47;;
13967;SDS011;39536;52.198;9.920;2023-03-01T09:58:00;14.73;;;13.17;;
13967;SDS011;39536;52.198;9.920;2023-03-01T10:00:39;14.90;;;13.30;;
13967;SDS011;39536;52.198;9.920;2023-03-01T10:03:11;13.87;;;12.47;;
13967;SDS011;39536;52.198;9.920;2023-03-01T10:05:50;13.47;;;12.17;;
13967;SDS011;39536;52.198;9.920;2023-03-01T10:08:27;17.50;;;11.10;;
13967;SDS011;39536;52.198;9.920;2023-03-01T10:11:01;12.43;;;11.33;;
13967;SDS011;39536;52.198;9.920;2023-03-01T10:13:29;12.63;;;11.33;;
13967;SDS011;39536;52.198;9.920;2023-03-01T10:16:05;13.37;;;12.07;;
13967;SDS011;39536;52.198;9.920;2023-03-01T10:18:39;11.73;;;10.53;;
13967;SDS011;39536;52.198;9.920;2023-03-01T10:21:09;13.80;;;11.33;;
13967;SDS011;39536;52.198;9.920;2023-03-01T10:23:41;11.80;;;10.50;;
13967;SDS011;39536;52.198;9.920;2023-03-01T10:29:01;10.13;;;9.10;;
13967;SDS011;39536;52.198;9.920;2023-03-01T10:31:34;11.60;;;10.40;;
13967;SDS011;39536;52.198;9.920;2023-03-01T10:34:07;10.70;;;9.80;;
13967;SDS011;39536;52.198;9.920;2023-03-01T10:36:35;10.90;;;9.50;;
13967;SDS011;39536;52.198;9.920;2023-03-01T10:39:10;10.53;;;8.80;;
13967;SDS011;39536;52.198;9.920;2023-03-01T10:41:44;8.50;;;7.63;;
13967;SDS011;39536;52.198;9.920;2023-03-01T10:44:39;13.13;;;7.90;;
13967;SDS011;39536;52.198;9.920;2023-03-01T10:47:17;9.67;;;8.67;;
13967;SDS011;39536;52.198;9.920;2023-03-01T10:49:51;9.30;;;8.47;;
13967;SDS011;39536;52.198;9.920;2023-03-01T10:52:30;9.40;;;8.50;;
13967;SDS011;39536;52.198;9.920;2023-03-01T10:54:59;9.03;;;7.67;;
13967;SDS011;39536;52.198;9.920;2023-03-01T10:57:28;9.83;;;7.20;;
13967;SDS011;39536;52.198;9.920;2023-03-01T11:03:11;8.47;;;7.57;;
13967;SDS011;39536;52.198;9.920;2023-03-01T11:05:50;8.03;;;7.30;;
13967;SDS011;39536;52.198;9.920;2023-03-01T11:08:29;9.23;;;7.43;;
13967;SDS011;39536;52.198;9.920;2023-03-01T11:11:04;8.33;;;7.50;;
13967;SDS011;39536;52.198;9.920;2023-03-01T11:13:33;8.53;;;7.67;;
13967;SDS011;39536;52.198;9.920;2023-03-01T11:16:01;8.23;;;7.43;;
13967;SDS011;39536;52.198;9.920;2023-03-01T11:18:31;7.60;;;6.90;;
13967;SDS011;39536;52.198;9.920;2023-03-01T11:20:58;7.67;;;6.97;;
13967;SDS011;39536;52.198;9.920;2023-03-01T11:23:27;7.97;;;7.20;;
13967;SDS011;39536;52.198;9.920;2023-03-01T11:25:55;7.10;;;6.50;;
13967;SDS011;39536;52.198;9.920;2023-03-01T11:28:24;7.63;;;6.93;;
13967;SDS011;39536;52.198;9.920;2023-03-01T11:30:55;7.70;;;7.00;;
13967;SDS011;39536;52.198;9.920;2023-03-01T11:33:30;8.57;;;7.77;;
13967;SDS011;39536;52.198;9.920;2023-03-01T11:36:06;7.87;;;7.03;;
13967;SDS011;39536;52.198;9.920;2023-03-01T11:38:39;9.10;;;6.73;;
13967;SDS011;39536;52.198;9.920;2023-03-01T11:41:06;8.17;;;7.37;;
13967;SDS011;39536;52.198;9.920;2023-03-01T11:43:36;8.60;;;7.10;;
13967;SDS011;39536;52.198;9.920;2023-03-01T11:49:33;7.93;;;6.87;;
13967;SDS011;39536;52.198;9.920;2023-03-01T11:52:11;8.20;;;7.40;;
13967;SDS011;39536;52.198;9.920;2023-03-01T11:54:52;8.07;;;7.27;;
13967;SDS011;39536;52.198;9.920;2023-03-01T11:57:36;8.00;;;7.30;;
13967;SDS011;39536;52.198;9.920;2023-03-01T12:00:15;7.70;;;6.90;;
13967;SDS011;39536;52.198;9.920;2023-03-01T12:03:08;7.77;;;7.00;;
13967;SDS011;39536;52.198;9.920;2023-03-01T12:05:56;7.13;;;6.53;;
13967;SDS011;39536;52.198;9.920;2023-03-01T12:08:36;8.07;;;7.27;;
13967;SDS011;39536;52.198;9.920;2023-03-01T12:11:10;8.50;;;6.53;;
13967;SDS011;39536;52.198;9.920;2023-03-01T12:14:00;8.23;;;6.67;;
13967;SDS011;39536;52.198;9.920;2023-03-01T12:16:59;7.43;;;6.73;;
13967;SDS011;39536;52.198;9.920;2023-03-01T12:19:44;8.23;;;6.90;;
13967;SDS011;39536;52.198;9.920;2023-03-01T12:22:29;7.57;;;6.87;;
13967;SDS011;39536;52.198;9.920;2023-03-01T12:25:04;6.80;;;6.00;;
13967;SDS011;39536;52.198;9.920;2023-03-01T12:27:58;8.07;;;7.30;;
13967;SDS011;39536;52.198;9.920;2023-03-01T12:30:39;6.73;;;6.17;;
13967;SDS011;39536;52.198;9.920;2023-03-01T12:33:19;7.47;;;6.77;;
13967;SDS011;39536;52.198;9.920;2023-03-01T12:36:04;7.70;;;7.10;;
13967;SDS011;39536;52.198;9.920;2023-03-01T12:38:49;7.10;;;6.50;;
13967;SDS011;39536;52.198;9.920;2023-03-01T12:41:21;6.57;;;5.97;;
13967;SDS011;39536;52.198;9.920;2023-03-01T12:44:11;5.97;;;5.33;;
13967;SDS011;39536;52.198;9.920;2023-03-01T12:46:52;7.13;;;6.43;;
13967;SDS011;39536;52.198;9.920;2023-03-01T12:49:31;6.77;;;6.07;;
13967;SDS011;39536;52.198;9.920;2023-03-01T12:52:03;7.73;;;6.90;;
13967;SDS011;39536;52.198;9.920;2023-03-01T12:54:38;6.67;;;6.17;;
13967;SDS011;39536;52.198;9.920;2023-03-01T12:57:08;6.57;;;6.00;;
13967;SDS011;39536;52.198;9.920;2023-03-01T12:59:41;5.87;;;5.27;;
13967;SDS011;39536;52.198;9.920;2023-03-01T13:02:19;6.63;;;6.00;;
13967;SDS011;39536;52.198;9.920;2023-03-01T13:04:53;6.73;;;5.73;;
13967;SDS011;39536;52.198;9.920;2023-03-01T13:07:34;5.93;;;5.43;;
13967;SDS011;39536;52.198;9.920;2023-03-01T13:10:17;6.93;;;5.83;;
13967;SDS011;39536;52.198;9.920;2023-03-01T13:12:50;6.30;;;5.70;;
13967;SDS011;39536;52.198;9.920;2023-03-01T13:15:32;8.03;;;5.70;;
13967;SDS011;39536;52.198;9.920;2023-03-01T13:18:01;5.47;;;5.03;;
13967;SDS011;39536;52.198;9.920;2023-03-01T13:20:30;7.67;;;5.90;;
13967;SDS011;39536;52.198;9.920;2023-03-01T13:23:01;6.40;;;5.90;;
13967;SDS011;39536;52.198;9.920;2023-03-01T13:25:33;5.73;;;5.23;;
13967;SDS011;39536;52.198;9.920;2023-03-01T13:31:07;6.90;;;6.27;;
13967;SDS011;39536;52.198;9.920;2023-03-01T13:33:45;6.37;;;5.40;;
13967;SDS011;39536;52.198;9.920;2023-03-01T13:36:45;6.30;;;5.80;;
13967;SDS011;39536;52.198;9.920;2023-03-01T13:41:58;6.13;;;5.53;;
13967;SDS011;39536;52.198;9.920;2023-03-01T13:44:26;5.67;;;5.10;;
13967;SDS011;39536;52.198;9.920;2023-03-01T13:46:57;6.57;;;5.43;;
13967;SDS011;39536;52.198;9.920;2023-03-01T13:49:35;5.23;;;4.83;;
13967;SDS011;39536;52.198;9.920;2023-03-01T13:52:19;7.20;;;6.60;;
13967;SDS011;39536;52.198;9.920;2023-03-01T13:54:59;9.23;;;7.40;;
13967;SDS011;39536;52.198;9.920;2023-03-01T13:57:28;6.20;;;5.57;;
13967;SDS011;39536;52.198;9.920;2023-03-01T13:59:58;16.33;;;7.67;;
13967;SDS011;39536;52.198;9.920;2023-03-01T14:02:25;6.30;;;5.70;;
13967;SDS011;39536;52.198;9.920;2023-03-01T14:04:55;8.63;;;7.73;;
13967;SDS011;39536;52.198;9.920;2023-03-01T14:07:23;6.17;;;5.57;;
13967;SDS011;39536;52.198;9.920;2023-03-01T14:09:51;9.03;;;6.37;;
13967;SDS011;39536;52.198;9.920;2023-03-01T14:12:30;6.23;;;5.40;;
13967;SDS011;39536;52.198;9.920;2023-03-01T14:15:06;5.07;;;4.57;;
13967;SDS011;39536;52.198;9.920;2023-03-01T14:17:44;5.70;;;5.13;;
13967;SDS011;39536;52.198;9.920;2023-03-01T14:20:19;5.63;;;4.80;;
13967;SDS011;39536;52.198;9.920;2023-03-01T14:22:47;5.63;;;5.10;;
13967;SDS011;39536;52.198;9.920;2023-03-01T14:25:18;7.70;;;5.57;;
13967;SDS011;39536;52.198;9.920;2023-03-01T14:27:52;5.77;;;5.27;;
13967;SDS011;39536;52.198;9.920;2023-03-01T14:30:22;6.93;;;5.73;;
13967;SDS011;39536;52.198;9.920;2023-03-01T14:32:52;5.40;;;4.90;;
13967;SDS011;39536;52.198;9.920;2023-03-01T14:35:20;5.33;;;4.93;;
13967;SDS011;39536;52.198;9.920;2023-03-01T14:37:48;5.77;;;5.13;;
13967;SDS011;39536;52.198;9.920;2023-03-01T14:40:20;7.03;;;5.43;;
13967;SDS011;39536;52.198;9.920;2023-03-01T14:42:50;12.67;;;8.07;;
13967;SDS011;39536;52.198;9.920;2023-03-01T14:45:20;7.20;;;5.50;;
13967;SDS011;39536;52.198;9.920;2023-03-01T14:47:46;5.17;;;4.73;;
13967;SDS011;39536;52.198;9.920;2023-03-01T14:50:19;5.77;;;5.20;;
13967;SDS011;39536;52.198;9.920;2023-03-01T14:52:50;5.37;;;4.87;;
13967;SDS011;39536;52.198;9.920;2023-03-01T14:55:20;6.83;;;4.80;;
13967;SDS011;39536;52.198;9.920;2023-03-01T14:57:51;7.50;;;5.60;;
13967;SDS011;39536;52.198;9.920;2023-03-01T15:00:20;4.93;;;4.53;;
13967;SDS011;39536;52.198;9.920;2023-03-01T15:02:48;7.57;;;4.70;;
13967;SDS011;39536;52.198;9.920;2023-03-01T15:05:18;7.67;;;4.63;;
13967;SDS011;39536;52.198;9.920;2023-03-01T15:07:50;6.53;;;4.87;;
13967;SDS011;39536;52.198;9.920;2023-03-01T15:10:20;11.77;;;6.30;;
13967;SDS011;39536;52.198;9.920;2023-03-01T15:12:48;5.40;;;4.90;;
13967;SDS011;39536;52.198;9.920;2023-03-01T15:15:26;5.73;;;5.23;;